sensor_id;sensor_type;location;lat;lon;timestamp;pressure;altitude;pressure_sealevel;temperature;humidity
21401;BME280;18038;50.166;18.908;2022-12-05T00:00:57;98389.72;;;-1.75;86.63
21401;BME280;18038;50.166;18.908;2022-12-05T00:02:19;98388.56;;;-1.71;86.58
21401;BME280;18038;50.166;18.908;2022-12-05T00:03:40;98382.72;;;-1.88;86.68
21401;BME280;18038;50.166;18.908;2022-12-05T00:05:03;98384.50;;;-1.88;87.26
21401;BME280;18038;50.166;18.908;2022-12-05T00:06:26;98382.53;;;-1.97;87.17
21401;BME280;18038;50.166;18.908;2022-12-05T00:07:46;98383.25;;;-1.95;87.39
21401;BME280;18038;50.166;18.908;2022-12-05T00:09:11;98384.31;;;-1.98;87.70
21401;BME280;18038;50.166;18.908;2022-12-05T00:10:31;98381.09;;;-2.02;87.79
21401;BME280;18038;50.166;18.908;2022-12-05T00:11:52;98383.59;;;-2.00;87.81
21401;BME280;18038;50.166;18.908;2022-12-05T00:13:14;98388.91;;;-1.89;87.98
21401;BME280;18038;50.166;18.908;2022-12-05T00:14:32;98383.91;;;-1.92;87.49
21401;BME280;18038;50.166;18.908;2022-12-05T00:15:53;98388.69;;;-1.86;87.77
21401;BME280;18038;50.166;18.908;2022-12-05T00:17:12;98392.88;;;-1.83;87.41
21401;BME280;18038;50.166;18.908;2022-12-05T00:18:33;98383.47;;;-1.86;87.35
21401;BME280;18038;50.166;18.908;2022-12-05T00:19:51;98384.72;;;-1.91;87.20
21401;BME280;18038;50.166;18.908;2022-12-05T00:21:15;98377.81;;;-1.92;87.48
21401;BME280;18038;50.166;18.908;2022-12-05T00:22:36;98370.69;;;-1.90;87.71
21401;BME280;18038;50.166;18.908;2022-12-05T00:23:59;98378.13;;;-1.84;87.35
21401;BME280;18038;50.166;18.908;2022-12-05T00:25:21;98363.13;;;-1.82;87.52
21401;BME280;18038;50.166;18.908;2022-12-05T00:26:43;98380.91;;;-1.74;87.28
21401;BME280;18038;50.166;18.908;2022-12-05T00:28:04;98374.75;;;-1.73;87.08
21401;BME280;18038;50.166;18.908;2022-12-05T00:29:23;98367.31;;;-1.80;86.81
21401;BME280;18038;50.166;18.908;2022-12-05T00:30:44;98364.47;;;-1.76;87.12
21401;BME280;18038;50.166;18.908;2022-12-05T00:32:02;98362.06;;;-1.80;86.91
21401;BME280;18038;50.166;18.908;2022-12-05T00:33:23;98362.50;;;-1.86;86.96
21401;BME280;18038;50.166;18.908;2022-12-05T00:34:42;98361.69;;;-1.86;86.91
21401;BME280;18038;50.166;18.908;2022-12-05T00:36:04;98350.69;;;-1.91;86.81
21401;BME280;18038;50.166;18.908;2022-12-05T00:37:28;98365.75;;;-1.82;87.27
21401;BME280;18038;50.166;18.908;2022-12-05T00:38:49;98372.53;;;-1.80;87.07
21401;BME280;18038;50.166;18.908;2022-12-05T00:40:09;98360.19;;;-1.77;87.17
21401;BME280;18038;50.166;18.908;2022-12-05T00:41:32;98362.28;;;-1.83;87.12
21401;BME280;18038;50.166;18.908;2022-12-05T00:42:52;98362.22;;;-1.94;87.09
21401;BME280;18038;50.166;18.908;2022-12-05T00:44:12;98361.03;;;-1.90;87.02
21401;BME280;18038;50.166;18.908;2022-12-05T00:45:32;98359.06;;;-1.86;87.42
21401;BME280;18038;50.166;18.908;2022-12-05T00:46:53;98365.03;;;-1.84;87.13
21401;BME280;18038;50.166;18.908;2022-12-05T00:48:12;98360.13;;;-1.89;87.11
21401;BME280;18038;50.166;18.908;2022-12-05T00:49:33;98354.06;;;-1.89;87.02
21401;BME280;18038;50.166;18.908;2022-12-05T00:50:59;98356.53;;;-1.88;87.42
21401;BME280;18038;50.166;18.908;2022-12-05T00:52:21;98363.34;;;-1.85;86.89
21401;BME280;18038;50.166;18.908;2022-12-05T00:53:43;98361.91;;;-1.89;87.16
21401;BME280;18038;50.166;18.908;2022-12-05T00:55:03;98350.78;;;-1.93;86.98
21401;BME280;18038;50.166;18.908;2022-12-05T00:56:26;98363.56;;;-1.88;87.05
21401;BME280;18038;50.166;18.908;2022-12-05T00:57:48;98359.47;;;-1.80;87.44
21401;BME280;18038;50.166;18.908;2022-12-05T00:59:14;98366.38;;;-1.78;86.86
21401;BME280;18038;50.166;18.908;2022-12-05T01:00:36;98362.28;;;-1.83;86.57
21401;BME280;18038;50.166;18.908;2022-12-05T01:01:55;98359.59;;;-1.81;86.84
21401;BME280;18038;50.166;18.908;2022-12-05T01:03:16;98358.03;;;-1.84;86.51
21401;BME280;18038;50.166;18.908;2022-12-05T01:04:35;98356.22;;;-1.83;86.81
21401;BME280;18038;50.166;18.908;2022-12-05T01:05:58;98361.16;;;-1.78;87.13
21401;BME280;18038;50.166;18.908;2022-12-05T01:07:16;98362.19;;;-1.81;86.74
21401;BME280;18038;50.166;18.908;2022-12-05T01:08:38;98349.09;;;-1.81;86.79
21401;BME280;18038;50.166;18.908;2022-12-05T01:09:56;98354.44;;;-1.83;86.98
21401;BME280;18038;50.166;18.908;2022-12-05T01:11:18;98350.25;;;-1.85;86.79
21401;BME280;18038;50.166;18.908;2022-12-05T01:12:37;98342.63;;;-1.88;87.23
21401;BME280;18038;50.166;18.908;2022-12-05T01:14:01;98341.06;;;-1.91;87.21
21401;BME280;18038;50.166;18.908;2022-12-05T01:15:20;98334.47;;;-1.96;87.35
21401;BME280;18038;50.166;18.908;2022-12-05T01:16:43;98332.09;;;-1.99;87.35
21401;BME280;18038;50.166;18.908;2022-12-05T01:18:03;98327.34;;;-1.94;87.44
21401;BME280;18038;50.166;18.908;2022-12-05T01:19:26;98332.69;;;-1.96;87.57
21401;BME280;18038;50.166;18.908;2022-12-05T01:20:50;98327.44;;;-1.96;87.38
21401;BME280;18038;50.166;18.908;2022-12-05T01:22:09;98329.84;;;-1.93;87.77
21401;BME280;18038;50.166;18.908;2022-12-05T01:23:30;98327.75;;;-1.88;87.58
21401;BME280;18038;50.166;18.908;2022-12-05T01:24:48;98327.13;;;-1.91;87.20
21401;BME280;18038;50.166;18.908;2022-12-05T01:26:12;98331.25;;;-2.00;87.35
21401;BME280;18038;50.166;18.908;2022-12-05T01:27:32;98321.25;;;-1.95;87.28
21401;BME280;18038;50.166;18.908;2022-12-05T01:28:54;98324.63;;;-1.93;87.40
21401;BME280;18038;50.166;18.908;2022-12-05T01:30:15;98322.28;;;-1.85;87.38
21401;BME280;18038;50.166;18.908;2022-12-05T01:31:37;98318.28;;;-1.77;87.12
21401;BME280;18038;50.166;18.908;2022-12-05T01:32:58;98322.25;;;-1.72;87.14
21401;BME280;18038;50.166;18.908;2022-12-05T01:34:18;98330.00;;;-1.70;86.67
21401;BME280;18038;50.166;18.908;2022-12-05T01:35:40;98328.53;;;-1.74;86.46
21401;BME280;18038;50.166;18.908;2022-12-05T01:36:59;98328.31;;;-1.71;86.51
21401;BME280;18038;50.166;18.908;2022-12-05T01:38:20;98328.31;;;-1.71;86.50
21401;BME280;18038;50.166;18.908;2022-12-05T01:39:38;98326.75;;;-1.74;86.34
21401;BME280;18038;50.166;18.908;2022-12-05T01:41:00;98323.75;;;-1.81;86.44
21401;BME280;18038;50.166;18.908;2022-12-05T01:42:19;98326.38;;;-1.81;86.64
21401;BME280;18038;50.166;18.908;2022-12-05T01:43:56;98326.06;;;-1.76;86.61
21401;BME280;18038;50.166;18.908;2022-12-05T01:45:25;98333.19;;;-1.78;86.66
21401;BME280;18038;50.166;18.908;2022-12-05T01:46:52;98332.13;;;-1.75;86.59
21401;BME280;18038;50.166;18.908;2022-12-05T01:48:16;98326.38;;;-1.81;86.74
21401;BME280;18038;50.166;18.908;2022-12-05T01:49:41;98329.50;;;-1.75;86.77
21401;BME280;18038;50.166;18.908;2022-12-05T01:51:01;98335.25;;;-1.70;86.76
21401;BME280;18038;50.166;18.908;2022-12-05T01:52:26;98337.88;;;-1.70;86.26
21401;BME280;18038;50.166;18.908;2022-12-05T01:53:48;98333.97;;;-1.65;86.31
21401;BME280;18038;50.166;18.908;2022-12-05T01:55:13;98327.38;;;-1.70;86.21
21401;BME280;18038;50.166;18.908;2022-12-05T01:56:35;98332.09;;;-1.63;86.44
21401;BME280;18038;50.166;18.908;2022-12-05T01:58:01;98327.16;;;-1.67;86.06
21401;BME280;18038;50.166;18.908;2022-12-05T01:59:24;98323.94;;;-1.71;86.20
21401;BME280;18038;50.166;18.908;2022-12-05T02:00:50;98327.63;;;-1.73;86.17
21401;BME280;18038;50.166;18.908;2022-12-05T02:02:11;98327.94;;;-1.78;86.40
21401;BME280;18038;50.166;18.908;2022-12-05T02:03:33;98327.72;;;-1.75;86.48
21401;BME280;18038;50.166;18.908;2022-12-05T02:05:01;98328.53;;;-1.74;86.38
21401;BME280;18038;50.166;18.908;2022-12-05T02:06:26;98328.66;;;-1.76;86.61
21401;BME280;18038;50.166;18.908;2022-12-05T02:07:47;98339.44;;;-1.68;86.61
21401;BME280;18038;50.166;18.908;2022-12-05T02:09:06;98346.94;;;-1.63;86.56
21401;BME280;18038;50.166;18.908;2022-12-05T02:10:32;98357.00;;;-1.57;86.46
21401;BME280;18038;50.166;18.908;2022-12-05T02:11:57;98351.75;;;-1.57;86.18
21401;BME280;18038;50.166;18.908;2022-12-05T02:15:41;98340.97;;;-1.52;85.93
21401;BME280;18038;50.166;18.908;2022-12-05T02:17:24;98336.88;;;-1.56;85.60
21401;BME280;18038;50.166;18.908;2022-12-05T02:19:07;98341.56;;;-1.49;86.09
21401;BME280;18038;50.166;18.908;2022-12-05T02:20:44;98343.78;;;-1.55;85.43
21401;BME280;18038;50.166;18.908;2022-12-05T02:24:43;98352.19;;;-1.63;85.90
21401;BME280;18038;50.166;18.908;2022-12-05T02:26:35;98352.13;;;-1.74;86.10
21401;BME280;18038;50.166;18.908;2022-12-05T02:28:18;98345.72;;;-1.70;86.25
21401;BME280;18038;50.166;18.908;2022-12-05T02:30:04;98354.78;;;-1.63;86.16
21401;BME280;18038;50.166;18.908;2022-12-05T02:31:17;98347.56;;;-1.60;85.93
21401;BME280;18038;50.166;18.908;2022-12-05T02:32:54;98350.94;;;-1.58;85.75
21401;BME280;18038;50.166;18.908;2022-12-05T02:34:18;98342.56;;;-1.63;85.77
21401;BME280;18038;50.166;18.908;2022-12-05T02:35:40;98332.78;;;-1.61;85.90
21401;BME280;18038;50.166;18.908;2022-12-05T02:37:05;98336.25;;;-1.60;85.90
21401;BME280;18038;50.166;18.908;2022-12-05T02:38:25;98335.09;;;-1.56;85.63
21401;BME280;18038;50.166;18.908;2022-12-05T02:39:42;98338.34;;;-1.52;85.60
21401;BME280;18038;50.166;18.908;2022-12-05T02:40:59;98355.38;;;-1.47;85.61
21401;BME280;18038;50.166;18.908;2022-12-05T02:42:20;98347.84;;;-1.51;85.51
21401;BME280;18038;50.166;18.908;2022-12-05T02:43:36;98351.31;;;-1.51;85.34
21401;BME280;18038;50.166;18.908;2022-12-05T02:44:55;98346.28;;;-1.54;85.35
21401;BME280;18038;50.166;18.908;2022-12-05T02:46:08;98340.22;;;-1.54;85.44
21401;BME280;18038;50.166;18.908;2022-12-05T02:47:25;98339.88;;;-1.50;85.89
21401;BME280;18038;50.166;18.908;2022-12-05T02:48:35;98337.88;;;-1.46;85.47
21401;BME280;18038;50.166;18.908;2022-12-05T02:49:43;98333.25;;;-1.43;85.29
21401;BME280;18038;50.166;18.908;2022-12-05T02:50:49;98340.09;;;-1.53;85.24
21401;BME280;18038;50.166;18.908;2022-12-05T02:52:02;98344.78;;;-1.45;85.52
21401;BME280;18038;50.166;18.908;2022-12-05T02:53:14;98346.25;;;-1.41;85.71
21401;BME280;18038;50.166;18.908;2022-12-05T02:54:28;98335.75;;;-1.41;85.40
21401;BME280;18038;50.166;18.908;2022-12-05T02:55:37;98341.44;;;-1.47;84.90
21401;BME280;18038;50.166;18.908;2022-12-05T02:56:48;98330.56;;;-1.54;85.47
21401;BME280;18038;50.166;18.908;2022-12-05T02:58:02;98337.25;;;-1.50;85.59
21401;BME280;18038;50.166;18.908;2022-12-05T02:59:12;98336.81;;;-1.44;85.61
21401;BME280;18038;50.166;18.908;2022-12-05T03:00:27;98343.00;;;-1.45;85.26
21401;BME280;18038;50.166;18.908;2022-12-05T03:01:33;98344.03;;;-1.47;85.20
21401;BME280;18038;50.166;18.908;2022-12-05T03:02:39;98333.97;;;-1.41;85.39
21401;BME280;18038;50.166;18.908;2022-12-05T03:03:47;98344.69;;;-1.44;85.02
21401;BME280;18038;50.166;18.908;2022-12-05T03:04:52;98344.56;;;-1.42;85.12
21401;BME280;18038;50.166;18.908;2022-12-05T03:06:06;98347.31;;;-1.44;85.08
21401;BME280;18038;50.166;18.908;2022-12-05T03:07:19;98345.78;;;-1.35;85.33
21401;BME280;18038;50.166;18.908;2022-12-05T03:08:32;98346.03;;;-1.38;85.01
21401;BME280;18038;50.166;18.908;2022-12-05T03:09:44;98342.66;;;-1.40;84.74
21401;BME280;18038;50.166;18.908;2022-12-05T03:10:57;98349.19;;;-1.46;85.04
21401;BME280;18038;50.166;18.908;2022-12-05T03:12:10;98342.91;;;-1.43;85.00
21401;BME280;18038;50.166;18.908;2022-12-05T03:13:26;98345.41;;;-1.42;85.11
21401;BME280;18038;50.166;18.908;2022-12-05T03:14:41;98354.66;;;-1.49;85.08
21401;BME280;18038;50.166;18.908;2022-12-05T03:16:04;98343.94;;;-1.46;85.02
21401;BME280;18038;50.166;18.908;2022-12-05T03:17:20;98341.44;;;-1.47;84.96
21401;BME280;18038;50.166;18.908;2022-12-05T03:18:30;98335.72;;;-1.52;85.08
21401;BME280;18038;50.166;18.908;2022-12-05T03:19:48;98342.72;;;-1.53;85.07
21401;BME280;18038;50.166;18.908;2022-12-05T03:21:07;98338.53;;;-1.55;85.13
21401;BME280;18038;50.166;18.908;2022-12-05T03:22:26;98333.94;;;-1.52;85.35
21401;BME280;18038;50.166;18.908;2022-12-05T03:23:38;98338.34;;;-1.52;85.29
21401;BME280;18038;50.166;18.908;2022-12-05T03:24:50;98335.72;;;-1.52;85.22
21401;BME280;18038;50.166;18.908;2022-12-05T03:26:04;98337.06;;;-1.47;85.37
21401;BME280;18038;50.166;18.908;2022-12-05T03:27:24;98336.59;;;-1.41;85.15
21401;BME280;18038;50.166;18.908;2022-12-05T03:28:48;98330.81;;;-1.57;85.26
21401;BME280;18038;50.166;18.908;2022-12-05T03:30:06;98331.44;;;-1.66;85.55
21401;BME280;18038;50.166;18.908;2022-12-05T03:31:24;98333.41;;;-1.57;85.73
21401;BME280;18038;50.166;18.908;2022-12-05T03:32:44;98329.84;;;-1.56;85.68
21401;BME280;18038;50.166;18.908;2022-12-05T03:33:58;98337.69;;;-1.56;85.53
21401;BME280;18038;50.166;18.908;2022-12-05T03:35:11;98333.56;;;-1.71;85.66
21401;BME280;18038;50.166;18.908;2022-12-05T03:36:33;98335.78;;;-1.78;86.10
21401;BME280;18038;50.166;18.908;2022-12-05T03:37:49;98337.59;;;-1.78;86.50
21401;BME280;18038;50.166;18.908;2022-12-05T03:39:04;98336.41;;;-1.74;86.51
21401;BME280;18038;50.166;18.908;2022-12-05T03:40:22;98340.50;;;-1.70;86.36
21401;BME280;18038;50.166;18.908;2022-12-05T03:41:37;98331.44;;;-1.66;86.35
21401;BME280;18038;50.166;18.908;2022-12-05T03:42:53;98331.63;;;-1.56;86.37
21401;BME280;18038;50.166;18.908;2022-12-05T03:44:11;98329.09;;;-1.58;86.03
21401;BME280;18038;50.166;18.908;2022-12-05T03:45:27;98324.81;;;-1.59;85.63
21401;BME280;18038;50.166;18.908;2022-12-05T03:46:51;98320.03;;;-1.65;85.90
21401;BME280;18038;50.166;18.908;2022-12-05T03:48:06;98313.34;;;-1.69;85.93
21401;BME280;18038;50.166;18.908;2022-12-05T03:49:25;98310.41;;;-1.65;85.91
21401;BME280;18038;50.166;18.908;2022-12-05T03:50:40;98309.34;;;-1.62;85.93
21401;BME280;18038;50.166;18.908;2022-12-05T03:51:57;98301.81;;;-1.67;85.80
21401;BME280;18038;50.166;18.908;2022-12-05T03:53:16;98297.75;;;-1.71;85.85
21401;BME280;18038;50.166;18.908;2022-12-05T03:54:33;98302.34;;;-1.74;85.95
21401;BME280;18038;50.166;18.908;2022-12-05T03:55:44;98314.41;;;-1.72;86.29
21401;BME280;18038;50.166;18.908;2022-12-05T03:57:12;98311.59;;;-1.82;86.18
21401;BME280;18038;50.166;18.908;2022-12-05T03:58:26;98312.03;;;-1.88;86.65
21401;BME280;18038;50.166;18.908;2022-12-05T03:59:43;98320.63;;;-1.86;86.48
21401;BME280;18038;50.166;18.908;2022-12-05T04:00:53;98310.53;;;-1.79;86.43
21401;BME280;18038;50.166;18.908;2022-12-05T04:02:11;98318.50;;;-1.81;86.62
21401;BME280;18038;50.166;18.908;2022-12-05T04:03:27;98312.97;;;-1.76;86.59
21401;BME280;18038;50.166;18.908;2022-12-05T04:04:47;98311.16;;;-1.75;86.17
21401;BME280;18038;50.166;18.908;2022-12-05T04:06:00;98304.38;;;-1.78;86.35
21401;BME280;18038;50.166;18.908;2022-12-05T04:07:09;98310.66;;;-1.81;86.29
21401;BME280;18038;50.166;18.908;2022-12-05T04:08:24;98299.44;;;-1.83;86.37
21401;BME280;18038;50.166;18.908;2022-12-05T04:09:36;98296.09;;;-1.85;86.39
21401;BME280;18038;50.166;18.908;2022-12-05T04:10:53;98301.25;;;-1.83;86.67
21401;BME280;18038;50.166;18.908;2022-12-05T04:12:05;98305.19;;;-1.77;86.38
21401;BME280;18038;50.166;18.908;2022-12-05T04:13:20;98311.22;;;-1.88;86.51
21401;BME280;18038;50.166;18.908;2022-12-05T04:14:33;98317.19;;;-1.86;86.88
21401;BME280;18038;50.166;18.908;2022-12-05T04:15:54;98311.41;;;-1.78;86.95
21401;BME280;18038;50.166;18.908;2022-12-05T04:17:27;98312.09;;;-1.76;86.32
21401;BME280;18038;50.166;18.908;2022-12-05T04:18:40;98307.38;;;-1.71;86.10
21401;BME280;18038;50.166;18.908;2022-12-05T04:19:55;98303.00;;;-1.71;86.10
21401;BME280;18038;50.166;18.908;2022-12-05T04:21:21;98300.25;;;-1.69;86.02
21401;BME280;18038;50.166;18.908;2022-12-05T04:22:43;98304.25;;;-1.76;86.04
21401;BME280;18038;50.166;18.908;2022-12-05T04:23:51;98304.03;;;-1.73;86.32
21401;BME280;18038;50.166;18.908;2022-12-05T04:25:12;98305.94;;;-1.75;86.08
21401;BME280;18038;50.166;18.908;2022-12-05T04:26:42;98303.19;;;-1.74;86.31
21401;BME280;18038;50.166;18.908;2022-12-05T04:28:03;98305.72;;;-1.72;86.20
21401;BME280;18038;50.166;18.908;2022-12-05T04:29:29;98299.13;;;-1.78;86.29
21401;BME280;18038;50.166;18.908;2022-12-05T04:30:43;98298.81;;;-1.73;86.43
21401;BME280;18038;50.166;18.908;2022-12-05T04:32:00;98297.13;;;-1.74;85.97
21401;BME280;18038;50.166;18.908;2022-12-05T04:33:16;98297.13;;;-1.74;86.26
21401;BME280;18038;50.166;18.908;2022-12-05T04:34:36;98290.22;;;-1.75;86.14
21401;BME280;18038;50.166;18.908;2022-12-05T04:35:49;98296.19;;;-1.73;86.12
21401;BME280;18038;50.166;18.908;2022-12-05T04:37:05;98289.25;;;-1.74;85.98
21401;BME280;18038;50.166;18.908;2022-12-05T04:38:20;98292.94;;;-1.77;86.15
21401;BME280;18038;50.166;18.908;2022-12-05T04:39:39;98288.03;;;-1.82;86.29
21401;BME280;18038;50.166;18.908;2022-12-05T04:40:54;98301.56;;;-1.88;86.66
21401;BME280;18038;50.166;18.908;2022-12-05T04:42:09;98296.47;;;-1.89;86.60
21401;BME280;18038;50.166;18.908;2022-12-05T04:43:18;98299.50;;;-1.95;86.73
21401;BME280;18038;50.166;18.908;2022-12-05T04:44:31;98295.09;;;-1.95;87.53
21401;BME280;18038;50.166;18.908;2022-12-05T04:45:40;98294.03;;;-1.92;87.26
21401;BME280;18038;50.166;18.908;2022-12-05T04:46:53;98283.19;;;-1.99;87.46
21401;BME280;18038;50.166;18.908;2022-12-05T04:48:05;98291.75;;;-1.97;87.48
21401;BME280;18038;50.166;18.908;2022-12-05T04:49:24;98299.25;;;-1.92;87.45
21401;BME280;18038;50.166;18.908;2022-12-05T04:50:34;98296.03;;;-1.96;87.35
21401;BME280;18038;50.166;18.908;2022-12-05T04:51:48;98290.06;;;-1.98;87.42
21401;BME280;18038;50.166;18.908;2022-12-05T04:52:57;98293.94;;;-1.91;87.63
21401;BME280;18038;50.166;18.908;2022-12-05T04:54:14;98305.00;;;-1.87;87.44
21401;BME280;18038;50.166;18.908;2022-12-05T04:55:33;98294.66;;;-1.89;87.24
21401;BME280;18038;50.166;18.908;2022-12-05T04:56:47;98292.56;;;-1.84;87.17
21401;BME280;18038;50.166;18.908;2022-12-05T04:58:07;98295.50;;;-1.88;87.22
21401;BME280;18038;50.166;18.908;2022-12-05T04:59:19;98294.94;;;-1.81;87.50
21401;BME280;18038;50.166;18.908;2022-12-05T05:00:23;98296.59;;;-1.80;87.03
21401;BME280;18038;50.166;18.908;2022-12-05T05:01:37;98298.31;;;-1.78;87.07
21401;BME280;18038;50.166;18.908;2022-12-05T05:02:50;98303.84;;;-1.83;86.88
21401;BME280;18038;50.166;18.908;2022-12-05T05:04:08;98306.53;;;-1.72;87.00
21401;BME280;18038;50.166;18.908;2022-12-05T05:05:19;98310.53;;;-1.79;86.77
21401;BME280;18038;50.166;18.908;2022-12-05T05:06:26;98301.47;;;-1.86;87.20
21401;BME280;18038;50.166;18.908;2022-12-05T05:07:30;98310.16;;;-1.86;87.20
21401;BME280;18038;50.166;18.908;2022-12-05T05:08:46;98308.78;;;-1.78;87.09
21401;BME280;18038;50.166;18.908;2022-12-05T05:09:51;98311.56;;;-1.69;87.26
21401;BME280;18038;50.166;18.908;2022-12-05T05:11:11;98308.09;;;-1.69;87.12
21401;BME280;18038;50.166;18.908;2022-12-05T05:12:17;98309.34;;;-1.62;86.63
21401;BME280;18038;50.166;18.908;2022-12-05T05:13:24;98307.97;;;-1.55;86.50
21401;BME280;18038;50.166;18.908;2022-12-05T05:14:27;98302.34;;;-1.50;86.27
21401;BME280;18038;50.166;18.908;2022-12-05T05:15:34;98299.50;;;-1.47;86.12
21401;BME280;18038;50.166;18.908;2022-12-05T05:16:41;98300.16;;;-1.44;86.00
21401;BME280;18038;50.166;18.908;2022-12-05T05:17:49;98296.78;;;-1.46;85.42
21401;BME280;18038;50.166;18.908;2022-12-05T05:18:53;98290.59;;;-1.45;85.62
21401;BME280;18038;50.166;18.908;2022-12-05T05:20:02;98294.84;;;-1.55;85.59
21401;BME280;18038;50.166;18.908;2022-12-05T05:21:24;98294.72;;;-1.53;85.81
21401;BME280;18038;50.166;18.908;2022-12-05T05:22:32;98297.47;;;-1.55;85.64
21401;BME280;18038;50.166;18.908;2022-12-05T05:23:36;98294.97;;;-1.56;85.64
21401;BME280;18038;50.166;18.908;2022-12-05T05:24:42;98292.72;;;-1.50;85.70
21401;BME280;18038;50.166;18.908;2022-12-05T05:25:51;98288.16;;;-1.59;85.64
21401;BME280;18038;50.166;18.908;2022-12-05T05:26:59;98293.81;;;-1.52;85.99
21401;BME280;18038;50.166;18.908;2022-12-05T05:28:04;98285.59;;;-1.48;85.68
21401;BME280;18038;50.166;18.908;2022-12-05T05:29:12;98288.94;;;-1.46;85.52
21401;BME280;18038;50.166;18.908;2022-12-05T05:30:17;98288.34;;;-1.49;85.41
21401;BME280;18038;50.166;18.908;2022-12-05T05:31:24;98290.44;;;-1.54;85.39
21401;BME280;18038;50.166;18.908;2022-12-05T05:32:31;98283.38;;;-1.65;85.47
21401;BME280;18038;50.166;18.908;2022-12-05T05:33:39;98294.44;;;-1.62;85.72
21401;BME280;18038;50.166;18.908;2022-12-05T05:34:45;98296.63;;;-1.55;86.06
21401;BME280;18038;50.166;18.908;2022-12-05T05:35:52;98292.44;;;-1.58;85.92
21401;BME280;18038;50.166;18.908;2022-12-05T05:36:58;98291.38;;;-1.55;85.76
21401;BME280;18038;50.166;18.908;2022-12-05T05:38:04;98289.81;;;-1.58;85.81
21401;BME280;18038;50.166;18.908;2022-12-05T05:39:12;98289.81;;;-1.58;85.71
21401;BME280;18038;50.166;18.908;2022-12-05T05:40:18;98286.91;;;-1.66;85.80
21401;BME280;18038;50.166;18.908;2022-12-05T05:41:29;98284.72;;;-1.60;86.11
21401;BME280;18038;50.166;18.908;2022-12-05T05:42:34;98286.88;;;-1.53;85.97
21401;BME280;18038;50.166;18.908;2022-12-05T05:43:42;98286.69;;;-1.63;85.99
21401;BME280;18038;50.166;18.908;2022-12-05T05:44:47;98277.56;;;-1.58;86.02
21401;BME280;18038;50.166;18.908;2022-12-05T05:45:53;98277.06;;;-1.63;85.78
21401;BME280;18038;50.166;18.908;2022-12-05T05:46:57;98282.66;;;-1.67;85.87
21401;BME280;18038;50.166;18.908;2022-12-05T05:48:05;98287.06;;;-1.68;86.17
21401;BME280;18038;50.166;18.908;2022-12-05T05:49:09;98279.28;;;-1.69;86.10
21401;BME280;18038;50.166;18.908;2022-12-05T05:50:16;98281.44;;;-1.63;86.25
21401;BME280;18038;50.166;18.908;2022-12-05T05:51:26;98285.88;;;-1.64;86.11
21401;BME280;18038;50.166;18.908;2022-12-05T05:52:35;98281.81;;;-1.68;86.12
21401;BME280;18038;50.166;18.908;2022-12-05T05:53:40;98275.00;;;-1.70;86.20
21401;BME280;18038;50.166;18.908;2022-12-05T05:54:47;98271.94;;;-1.64;86.22
21401;BME280;18038;50.166;18.908;2022-12-05T05:55:51;98263.25;;;-1.65;86.00
21401;BME280;18038;50.166;18.908;2022-12-05T05:56:57;98267.09;;;-1.58;85.90
21401;BME280;18038;50.166;18.908;2022-12-05T05:58:01;98275.28;;;-1.62;85.81
21401;BME280;18038;50.166;18.908;2022-12-05T05:59:08;98273.50;;;-1.62;86.06
21401;BME280;18038;50.166;18.908;2022-12-05T06:00:15;98265.47;;;-1.71;86.00
21401;BME280;18038;50.166;18.908;2022-12-05T06:01:20;98273.81;;;-1.66;86.19
21401;BME280;18038;50.166;18.908;2022-12-05T06:02:31;98276.41;;;-1.77;86.01
21401;BME280;18038;50.166;18.908;2022-12-05T06:03:36;98279.56;;;-1.85;86.47
21401;BME280;18038;50.166;18.908;2022-12-05T06:04:43;98274.84;;;-1.80;86.82
21401;BME280;18038;50.166;18.908;2022-12-05T06:05:56;98271.06;;;-1.76;86.83
21401;BME280;18038;50.166;18.908;2022-12-05T06:07:06;98281.03;;;-1.81;86.79
21401;BME280;18038;50.166;18.908;2022-12-05T06:08:09;98272.81;;;-1.76;86.60
21401;BME280;18038;50.166;18.908;2022-12-05T06:09:16;98275.56;;;-1.78;86.52
21401;BME280;18038;50.166;18.908;2022-12-05T06:10:22;98277.44;;;-1.80;86.58
21401;BME280;18038;50.166;18.908;2022-12-05T06:11:27;98281.53;;;-1.76;86.92
21401;BME280;18038;50.166;18.908;2022-12-05T06:12:35;98279.00;;;-1.77;86.70
21401;BME280;18038;50.166;18.908;2022-12-05T06:13:41;98278.56;;;-1.71;86.87
21401;BME280;18038;50.166;18.908;2022-12-05T06:14:47;98283.09;;;-1.73;86.43
21401;BME280;18038;50.166;18.908;2022-12-05T06:15:53;98279.53;;;-1.72;86.66
21401;BME280;18038;50.166;18.908;2022-12-05T06:17:01;98277.22;;;-1.77;86.66
21401;BME280;18038;50.166;18.908;2022-12-05T06:18:05;98286.25;;;-1.81;86.82
21401;BME280;18038;50.166;18.908;2022-12-05T06:19:11;98284.75;;;-1.72;87.06
21401;BME280;18038;50.166;18.908;2022-12-05T06:20:16;98286.88;;;-1.77;86.69
21401;BME280;18038;50.166;18.908;2022-12-05T06:21:22;98289.16;;;-1.73;86.90
21401;BME280;18038;50.166;18.908;2022-12-05T06:22:31;98289.44;;;-1.65;86.77
21401;BME280;18038;50.166;18.908;2022-12-05T06:23:38;98293.94;;;-1.67;86.65
21401;BME280;18038;50.166;18.908;2022-12-05T06:24:42;98289.53;;;-1.66;86.25
21401;BME280;18038;50.166;18.908;2022-12-05T06:25:53;98278.22;;;-1.67;86.23
21401;BME280;18038;50.166;18.908;2022-12-05T06:26:58;98286.31;;;-1.70;86.39
21401;BME280;18038;50.166;18.908;2022-12-05T06:28:04;98286.81;;;-1.65;86.03
21401;BME280;18038;50.166;18.908;2022-12-05T06:29:12;98281.03;;;-1.57;86.38
21401;BME280;18038;50.166;18.908;2022-12-05T06:30:16;98286.69;;;-1.63;85.86
21401;BME280;18038;50.166;18.908;2022-12-05T06:31:24;98286.50;;;-1.60;86.09
21401;BME280;18038;50.166;18.908;2022-12-05T06:32:30;98282.41;;;-1.64;86.17
21401;BME280;18038;50.166;18.908;2022-12-05T06:33:38;98295.47;;;-1.75;86.29
21401;BME280;18038;50.166;18.908;2022-12-05T06:34:43;98293.44;;;-1.72;86.43
21401;BME280;18038;50.166;18.908;2022-12-05T06:36:01;98293.91;;;-1.78;86.31
21401;BME280;18038;50.166;18.908;2022-12-05T06:37:06;98297.34;;;-1.77;86.60
21401;BME280;18038;50.166;18.908;2022-12-05T06:38:15;98289.25;;;-1.74;87.02
21401;BME280;18038;50.166;18.908;2022-12-05T06:39:20;98288.44;;;-1.75;86.66
21401;BME280;18038;50.166;18.908;2022-12-05T06:40:27;98293.22;;;-1.69;86.89
21401;BME280;18038;50.166;18.908;2022-12-05T06:41:31;98295.22;;;-1.72;86.52